Time;durP1;ratioP1;P1;durP2;ratioP2;P2;SDS_P1;SDS_P2;PMS_P1;PMS_P2;Temp;Humidity;BMP_temperature;BMP_pressure;BME280_temperature;BME280_humidity;BME280_pressure;Samples;Min_cycle;Max_cycle;Signal;HPM_P1;HPM_P2
2024/02/20 00:01:22;;;;;;;6.20;3.40;;;9.50;99.90;;;;;;4991312;28;20570;-75
2024/02/20 00:04:08;;;;;;;6.20;3.30;;;9.60;99.90;;;;;;4996365;28;20815;-75
2024/02/20 00:06:55;;;;;;;2.90;2.20;;;9.50;99.90;;;;;;4998773;28;20472;-75
2024/02/20 00:09:41;;;;;;;4.00;2.90;;;9.50;99.90;;;;;;4991808;28;20457;-74
2024/02/20 00:12:27;;;;;;;4.30;2.47;;;9.50;99.90;;;;;;4992769;28;20467;-75
2024/02/20 00:15:13;;;;;;;8.57;3.43;;;9.50;99.90;;;;;;4991022;28;20451;-74
2024/02/20 00:17:59;;;;;;;3.57;2.50;;;9.50;99.90;;;;;;4994176;28;20617;-75
2024/02/20 00:20:45;;;;;;;8.23;2.63;;;9.50;99.90;;;;;;4992600;28;20441;-75
2024/02/20 00:23:32;;;;;;;4.67;2.80;;;9.50;99.90;;;;;;4992141;28;20491;-74
2024/02/20 00:26:18;;;;;;;3.77;2.10;;;9.50;99.90;;;;;;4991612;28;20507;-74
2024/02/20 00:29:04;;;;;;;9.33;2.53;;;9.40;99.90;;;;;;4989796;28;20928;-75
2024/02/20 00:31:49;;;;;;;5.30;2.27;;;9.40;99.90;;;;;;4988461;28;20461;-75
2024/02/20 00:34:35;;;;;;;10.80;2.70;;;9.50;99.90;;;;;;4993956;28;20811;-75
2024/02/20 00:37:21;;;;;;;7.67;2.40;;;9.40;99.90;;;;;;4989285;28;20479;-75
2024/02/20 00:40:09;;;;;;;4.03;2.30;;;9.50;99.90;;;;;;4995518;28;20457;-75
2024/02/20 00:42:55;;;;;;;5.53;2.20;;;9.40;99.90;;;;;;4996445;28;20460;-74
2024/02/20 00:45:41;;;;;;;4.40;2.63;;;9.40;99.90;;;;;;4991636;28;21049;-74
2024/02/20 00:48:27;;;;;;;7.93;2.57;;;9.40;99.90;;;;;;4992566;28;20457;-74
2024/02/20 00:51:14;;;;;;;5.40;2.50;;;9.40;99.90;;;;;;4994062;28;20554;-74
2024/02/20 00:54:00;;;;;;;5.53;2.70;;;9.30;99.90;;;;;;4992071;28;20619;-75
2024/02/20 00:56:47;;;;;;;5.47;2.17;;;9.30;99.90;;;;;;4994075;28;20550;-75
2024/02/20 00:59:33;;;;;;;11.87;2.60;;;9.30;99.90;;;;;;4992647;28;21363;-75
2024/02/20 01:02:19;;;;;;;9.63;3.40;;;9.30;99.90;;;;;;4994233;28;20481;-74
2024/02/20 01:05:05;;;;;;;6.93;2.67;;;9.30;99.90;;;;;;4991538;28;20574;-75
2024/02/20 01:07:50;;;;;;;8.50;2.20;;;9.20;99.90;;;;;;4993669;28;20970;-75
2024/02/20 01:10:37;;;;;;;5.90;2.57;;;9.20;99.90;;;;;;4995050;28;20440;-75
2024/02/20 01:13:24;;;;;;;8.40;2.90;;;9.20;99.90;;;;;;4992469;28;20504;-74
2024/02/20 01:16:09;;;;;;;9.40;3.07;;;9.30;99.90;;;;;;4992315;28;20471;-74
2024/02/20 01:18:56;;;;;;;7.63;2.77;;;9.30;99.90;;;;;;4996828;28;20457;-75
2024/02/20 01:21:41;;;;;;;7.07;2.63;;;9.30;99.90;;;;;;4994321;28;20460;-75
2024/02/20 01:24:27;;;;;;;5.20;2.67;;;9.30;99.90;;;;;;4983407;28;20456;-74
2024/02/20 01:27:14;;;;;;;10.53;3.37;;;9.20;99.90;;;;;;4988598;28;20491;-75
2024/02/20 01:30:01;;;;;;;10.57;2.90;;;9.20;99.90;;;;;;4988131;28;20457;-75
2024/02/20 01:32:48;;;;;;;8.27;2.50;;;9.10;99.90;;;;;;4989685;28;20827;-75
2024/02/20 01:35:34;;;;;;;6.27;2.30;;;9.10;99.90;;;;;;4994097;28;20480;-75
2024/02/20 01:38:20;;;;;;;9.13;2.73;;;9.10;99.90;;;;;;5036499;23;20495;-75
2024/02/20 01:41:06;;;;;;;12.17;3.53;;;9.10;99.90;;;;;;5007856;28;20575;-75
2024/02/20 01:43:51;;;;;;;10.70;2.60;;;9.10;99.90;;;;;;5007756;28;20970;-73
2024/02/20 01:46:41;;;;;;;11.33;3.40;;;9.10;99.90;;;;;;5007824;28;21082;-73
2024/02/20 01:49:28;;;;;;;12.37;2.77;;;9.00;99.90;;;;;;5010933;28;20413;-73
2024/02/20 01:52:14;;;;;;;11.27;3.27;;;9.00;99.90;;;;;;5008341;28;20454;-73
2024/02/20 01:55:02;;;;;;;11.70;2.77;;;9.00;99.90;;;;;;5010057;28;20532;-74
2024/02/20 01:57:48;;;;;;;8.20;3.33;;;8.90;99.90;;;;;;5007154;28;20538;-73
2024/02/20 02:00:34;;;;;;;15.73;4.53;;;8.80;99.90;;;;;;5013573;28;20805;-73
2024/02/20 02:03:22;;;;;;;12.03;3.70;;;8.70;99.90;;;;;;5009522;28;21125;-74
2024/02/20 02:06:07;;;;;;;15.70;3.90;;;8.60;99.90;;;;;;5011976;28;20495;-73
2024/02/20 02:08:53;;;;;;;24.83;3.53;;;8.50;99.90;;;;;;5008809;28;20983;-73
2024/02/20 02:11:39;;;;;;;14.13;3.50;;;8.60;99.90;;;;;;5011600;28;20442;-73
2024/02/20 02:14:25;;;;;;;16.20;3.90;;;8.60;99.90;;;;;;5007934;28;20466;-74
2024/02/20 02:17:11;;;;;;;17.77;4.20;;;8.60;99.90;;;;;;5015621;28;20453;-74
2024/02/20 02:19:58;;;;;;;13.43;3.43;;;8.60;99.90;;;;;;5010283;28;21182;-72
2024/02/20 02:22:44;;;;;;;12.17;3.70;;;8.60;99.90;;;;;;5013079;28;20438;-73
2024/02/20 02:25:30;;;;;;;15.40;5.30;;;8.60;99.90;;;;;;5014532;28;20436;-73
2024/02/20 02:28:17;;;;;;;14.97;3.70;;;8.60;99.90;;;;;;5020128;28;20458;-75
2024/02/20 02:31:02;;;;;;;18.90;4.90;;;8.60;99.90;;;;;;5013598;28;20453;-73
2024/02/20 02:33:48;;;;;;;12.10;3.40;;;8.70;99.90;;;;;;5014079;28;20444;-73
2024/02/20 02:36:33;;;;;;;15.83;3.80;;;8.60;99.90;;;;;;5013649;28;20430;-73
2024/02/20 02:39:20;;;;;;;16.20;4.97;;;8.50;99.90;;;;;;5010867;28;20809;-75
2024/02/20 02:42:07;;;;;;;15.77;6.23;;;8.60;99.90;;;;;;5012418;28;20523;-73
2024/02/20 02:44:54;;;;;;;8.90;3.20;;;8.50;99.90;;;;;;5010928;28;20431;-74
2024/02/20 02:47:39;;;;;;;17.00;5.80;;;8.60;99.90;;;;;;5010495;28;20545;-73
2024/02/20 02:50:25;;;;;;;27.00;5.90;;;8.70;99.90;;;;;;5011708;28;20437;-73
2024/02/20 02:53:11;;;;;;;27.67;5.27;;;8.60;99.90;;;;;;5013160;28;20439;-73
2024/02/20 02:55:56;;;;;;;21.70;5.33;;;8.60;99.90;;;;;;5006814;28;20569;-73
2024/02/20 02:58:42;;;;;;;16.27;4.90;;;8.50;99.90;;;;;;5008350;28;20462;-74
2024/02/20 03:01:29;;;;;;;14.87;4.73;;;8.50;99.90;;;;;;5008197;28;20447;-73
2024/02/20 03:04:15;;;;;;;14.80;4.37;;;8.50;99.90;;;;;;5003411;28;20473;-76
2024/02/20 03:07:01;;;;;;;19.57;4.67;;;8.50;99.90;;;;;;5012184;28;20521;-73
2024/02/20 03:09:46;;;;;;;15.97;5.60;;;8.50;99.90;;;;;;5010332;28;20464;-73
2024/02/20 03:12:32;;;;;;;14.77;4.97;;;8.50;99.90;;;;;;5004835;28;20869;-73
2024/02/20 03:15:18;;;;;;;15.57;3.83;;;8.50;99.90;;;;;;5001772;28;20449;-75
2024/02/20 03:18:06;;;;;;;22.97;6.10;;;8.60;99.90;;;;;;5008507;28;20968;-73
2024/02/20 03:20:52;;;;;;;21.10;4.60;;;8.60;99.90;;;;;;5015680;28;20522;-73
2024/02/20 03:23:37;;;;;;;15.80;4.70;;;8.60;99.90;;;;;;5011834;28;20451;-74
2024/02/20 03:26:23;;;;;;;20.33;4.53;;;8.60;99.90;;;;;;5012790;28;20483;-73
2024/02/20 03:29:09;;;;;;;22.87;5.00;;;8.60;99.90;;;;;;5006844;28;21006;-74
2024/02/20 03:31:54;;;;;;;20.77;4.90;;;8.60;99.90;;;;;;4997385;28;20478;-73
2024/02/20 03:34:43;;;;;;;16.57;4.23;;;8.50;99.90;;;;;;4998106;28;20917;-73
2024/02/20 03:37:29;;;;;;;17.23;4.33;;;8.50;99.90;;;;;;5006641;28;20491;-73
2024/02/20 03:40:15;;;;;;;16.10;4.67;;;8.50;99.90;;;;;;5008215;28;20952;-73
2024/02/20 03:43:02;;;;;;;13.97;4.30;;;8.50;99.90;;;;;;5008931;28;20452;-73
2024/02/20 03:45:47;;;;;;;15.03;5.23;;;8.50;99.90;;;;;;5006280;28;20474;-73
2024/02/20 03:48:33;;;;;;;15.27;4.90;;;8.40;99.90;;;;;;5005742;28;20827;-73
2024/02/20 03:51:20;;;;;;;19.60;5.60;;;8.50;99.90;;;;;;5009246;28;20455;-74
2024/02/20 03:54:06;;;;;;;19.70;4.90;;;8.50;99.90;;;;;;5007373;28;20531;-74
2024/02/20 03:56:51;;;;;;;19.50;4.03;;;8.50;99.90;;;;;;5004274;28;20467;-74
2024/02/20 03:59:37;;;;;;;22.53;4.50;;;8.50;99.90;;;;;;5001026;28;20530;-73
2024/02/20 04:02:23;;;;;;;18.00;3.63;;;8.60;99.90;;;;;;5005038;28;20825;-73
2024/02/20 04:05:11;;;;;;;10.07;3.43;;;8.70;99.90;;;;;;5006280;28;20924;-74
2024/02/20 04:07:57;;;;;;;15.73;3.93;;;8.60;99.90;;;;;;5009540;28;20554;-74
2024/02/20 04:10:43;;;;;;;12.33;4.37;;;8.60;99.90;;;;;;5009533;28;20673;-73
2024/02/20 04:13:29;;;;;;;12.37;4.17;;;8.50;99.90;;;;;;5006250;28;20456;-75
2024/02/20 04:16:14;;;;;;;15.27;4.13;;;8.40;99.90;;;;;;5013910;28;20579;-74
2024/02/20 04:19:00;;;;;;;11.83;4.20;;;8.50;99.90;;;;;;5010077;28;20470;-72
2024/02/20 04:21:46;;;;;;;14.17;4.57;;;8.50;99.90;;;;;;5013435;28;20435;-73
2024/02/20 04:24:33;;;;;;;15.53;4.67;;;8.50;99.90;;;;;;5014464;28;20568;-73
2024/02/20 04:27:19;;;;;;;21.37;4.30;;;8.40;99.90;;;;;;5014647;28;20461;-74
2024/02/20 04:30:06;;;;;;;20.53;3.97;;;8.40;99.90;;;;;;5007356;28;20453;-73
2024/02/20 04:32:52;;;;;;;14.10;4.10;;;8.40;99.90;;;;;;5010727;28;20612;-73
2024/02/20 04:35:37;;;;;;;11.73;3.50;;;8.40;99.90;;;;;;5012320;28;20947;-73
2024/02/20 04:38:23;;;;;;;16.60;4.67;;;8.40;99.90;;;;;;5012637;28;20466;-73
2024/02/20 04:41:11;;;;;;;15.23;4.90;;;8.30;99.90;;;;;;5009467;28;20522;-73
2024/02/20 04:43:56;;;;;;;19.50;4.30;;;8.30;99.90;;;;;;5015427;28;20493;-74
2024/02/20 04:46:42;;;;;;;21.97;5.67;;;8.30;99.90;;;;;;5010877;28;20597;-73
2024/02/20 04:49:27;;;;;;;20.50;4.20;;;8.30;99.90;;;;;;5016629;28;20443;-73
2024/02/20 04:52:13;;;;;;;15.53;4.80;;;8.20;99.90;;;;;;5014539;28;20430;-74
2024/02/20 04:54:59;;;;;;;14.17;4.47;;;8.20;99.90;;;;;;5017722;28;20936;-73
2024/02/20 04:57:46;;;;;;;16.83;5.60;;;8.20;99.90;;;;;;5020106;28;20807;-74
2024/02/20 05:00:32;;;;;;;15.00;3.67;;;8.20;99.90;;;;;;5017393;28;20465;-73
2024/02/20 05:03:17;;;;;;;18.13;4.77;;;8.20;99.90;;;;;;5008280;28;20451;-73
2024/02/20 05:06:03;;;;;;;21.80;5.20;;;8.20;99.90;;;;;;5014327;28;20520;-74
2024/02/20 05:08:49;;;;;;;24.17;5.90;;;8.30;99.90;;;;;;5010301;28;20464;-74
2024/02/20 05:11:34;;;;;;;24.67;4.57;;;8.30;99.90;;;;;;5010533;28;20422;-75
2024/02/20 05:14:22;;;;;;;26.10;4.20;;;8.30;99.90;;;;;;5008177;28;20457;-73
2024/02/20 05:17:07;;;;;;;20.30;4.60;;;8.40;99.90;;;;;;5010136;28;20481;-73
2024/02/20 05:19:53;;;;;;;13.13;4.00;;;8.40;99.90;;;;;;5008186;28;20460;-73
2024/02/20 05:22:39;;;;;;;15.13;4.40;;;8.40;99.90;;;;;;5005676;28;20841;-73
2024/02/20 05:25:24;;;;;;;23.47;5.90;;;8.30;99.90;;;;;;5005429;28;21114;-73
2024/02/20 05:28:11;;;;;;;18.57;4.23;;;8.30;99.90;;;;;;5009919;28;20908;-74
2024/02/20 05:30:58;;;;;;;9.20;3.03;;;8.20;99.90;;;;;;5005534;28;20452;-73
2024/02/20 05:33:43;;;;;;;17.93;4.03;;;8.10;99.90;;;;;;5008745;28;20445;-73
2024/02/20 05:36:31;;;;;;;21.27;4.20;;;8.10;99.90;;;;;;5006772;28;20589;-73
2024/02/20 05:39:17;;;;;;;14.63;4.63;;;8.00;99.90;;;;;;5011292;28;20546;-73
2024/02/20 05:42:02;;;;;;;15.30;4.67;;;8.00;99.90;;;;;;5009981;28;20472;-74
2024/02/20 05:44:48;;;;;;;12.67;3.70;;;7.90;99.90;;;;;;5008578;28;20444;-75
2024/02/20 05:47:35;;;;;;;16.97;4.77;;;7.80;99.90;;;;;;5010873;28;21296;-74
2024/02/20 05:50:21;;;;;;;18.47;4.23;;;7.80;99.90;;;;;;5009888;28;20970;-73
2024/02/20 05:53:09;;;;;;;18.90;3.57;;;7.70;99.90;;;;;;5012270;28;20466;-73
2024/02/20 05:55:54;;;;;;;19.30;3.27;;;7.60;99.90;;;;;;5008557;28;20969;-74
2024/02/20 05:58:41;;;;;;;15.13;4.37;;;7.50;99.90;;;;;;5011070;28;20464;-76
2024/02/20 06:01:27;;;;;;;16.30;4.70;;;7.40;99.90;;;;;;5007951;28;20504;-74
2024/02/20 06:04:14;;;;;;;19.40;5.80;;;7.30;99.90;;;;;;5013163;28;20935;-75
2024/02/20 06:07:00;;;;;;;8.83;3.50;;;7.30;99.90;;;;;;5010494;28;20532;-76
2024/02/20 06:09:45;;;;;;;9.30;3.57;;;7.30;99.90;;;;;;5009714;28;20454;-73
2024/02/20 06:12:32;;;;;;;22.10;5.30;;;7.30;99.90;;;;;;5007768;28;20444;-74
2024/02/20 06:15:17;;;;;;;10.90;4.30;;;7.30;99.90;;;;;;5007931;28;21042;-74
2024/02/20 06:18:03;;;;;;;18.77;5.33;;;7.30;99.90;;;;;;5005976;28;21009;-74
2024/02/20 06:20:50;;;;;;;12.60;5.10;;;7.40;99.90;;;;;;5008298;28;20534;-74
2024/02/20 06:23:37;;;;;;;14.70;3.60;;;7.30;99.90;;;;;;5005792;28;20480;-73
2024/02/20 06:26:23;;;;;;;17.03;3.93;;;7.40;99.90;;;;;;5008007;28;20521;-73
2024/02/20 06:29:11;;;;;;;16.07;3.50;;;7.40;99.90;;;;;;5007606;28;20979;-75
2024/02/20 06:31:58;;;;;;;18.73;4.00;;;7.30;99.90;;;;;;5005338;28;20447;-73
2024/02/20 06:34:44;;;;;;;16.00;4.57;;;7.30;99.90;;;;;;5007546;28;20468;-74
2024/02/20 06:37:30;;;;;;;16.73;3.00;;;7.30;99.90;;;;;;5010608;28;20483;-74
2024/02/20 06:40:16;;;;;;;10.27;3.30;;;7.30;99.90;;;;;;5011251;28;20423;-76
2024/02/20 06:43:01;;;;;;;11.23;3.80;;;7.30;99.90;;;;;;5009128;28;20927;-75
2024/02/20 06:45:47;;;;;;;12.97;3.60;;;7.30;99.90;;;;;;5007465;28;20455;-73
2024/02/20 06:48:33;;;;;;;13.30;3.80;;;7.30;99.90;;;;;;5007738;28;20476;-76
2024/02/20 06:51:21;;;;;;;17.63;3.90;;;7.20;99.90;;;;;;5006794;28;20674;-74
2024/02/20 06:54:08;;;;;;;21.53;4.60;;;7.20;99.90;;;;;;5010813;28;20480;-74
2024/02/20 06:56:54;;;;;;;17.45;3.13;;;7.30;99.90;;;;;;5012478;28;20498;-74
2024/02/20 06:59:40;;;;;;;15.57;3.77;;;7.30;99.90;;;;;;5011403;28;20854;-77
2024/02/20 07:02:26;;;;;;;10.63;3.33;;;7.30;99.90;;;;;;5002907;28;20476;-73
2024/02/20 07:05:15;;;;;;;19.23;3.77;;;7.40;99.90;;;;;;5008451;28;20458;-73
2024/02/20 07:08:01;;;;;;;21.63;3.53;;;7.50;99.90;;;;;;5008471;28;20487;-71
2024/02/20 07:10:48;;;;;;;13.37;3.43;;;7.50;99.90;;;;;;5007339;28;20454;-75
2024/02/20 07:13:35;;;;;;;15.97;4.43;;;7.50;99.90;;;;;;5010018;28;20454;-75
2024/02/20 07:16:20;;;;;;;15.53;5.60;;;7.50;99.90;;;;;;5004843;28;20829;-72
2024/02/20 07:19:06;;;;;;;20.80;9.40;;;7.40;99.90;;;;;;4999440;28;20999;-73
2024/02/20 07:21:52;;;;;;;19.60;6.30;;;7.50;99.90;;;;;;5003660;28;20423;-73
2024/02/20 07:24:38;;;;;;;16.83;4.67;;;7.50;99.90;;;;;;5007414;28;20458;-73
2024/02/20 07:27:25;;;;;;;13.40;4.63;;;7.50;99.90;;;;;;5005334;28;20638;-73
2024/02/20 07:30:11;;;;;;;11.60;3.70;;;7.60;99.90;;;;;;5011941;28;20864;-73
2024/02/20 07:32:56;;;;;;;8.90;3.53;;;7.70;99.90;;;;;;5014360;28;20433;-73
2024/02/20 07:35:42;;;;;;;9.13;4.17;;;7.80;99.90;;;;;;5008892;28;20441;-76
2024/02/20 07:38:28;;;;;;;17.43;4.30;;;7.70;99.90;;;;;;5008605;28;20830;-74
2024/02/20 07:41:13;;;;;;;14.93;4.50;;;7.80;99.90;;;;;;5007938;28;20437;-74
2024/02/20 07:44:00;;;;;;;19.13;5.30;;;7.90;99.90;;;;;;5009762;28;20588;-75
2024/02/20 07:46:47;;;;;;;29.97;5.13;;;7.90;99.90;;;;;;5014313;28;20478;-73
2024/02/20 07:49:34;;;;;;;13.27;5.00;;;7.90;99.90;;;;;;5017218;28;20541;-74
2024/02/20 07:52:20;;;;;;;16.10;5.43;;;7.90;99.90;;;;;;5013914;28;20567;-73
2024/02/20 07:55:06;;;;;;;18.97;6.20;;;8.00;99.90;;;;;;5012769;28;20422;-74
2024/02/20 07:57:52;;;;;;;46.60;18.17;;;8.00;99.90;;;;;;5013111;28;20604;-73
2024/02/20 08:00:39;;;;;;;40.70;16.60;;;8.10;99.90;;;;;;5016453;28;20439;-74
2024/02/20 08:03:25;;;;;;;32.83;10.10;;;8.20;99.90;;;;;;5015850;28;20462;-73
2024/02/20 08:06:11;;;;;;;25.13;8.43;;;8.30;99.90;;;;;;5017214;28;20411;-73
2024/02/20 08:08:56;;;;;;;22.20;8.00;;;8.30;99.90;;;;;;5010423;28;20760;-74
2024/02/20 08:11:42;;;;;;;19.47;5.63;;;8.40;99.90;;;;;;5007157;28;20440;-73
2024/02/20 08:14:27;;;;;;;28.95;5.40;;;8.50;99.90;;;;;;5015416;28;20428;-73
2024/02/20 08:17:14;;;;;;;23.37;7.93;;;8.50;99.90;;;;;;5013057;28;20266;-74
2024/02/20 08:20:00;;;;;;;21.37;6.20;;;8.60;99.90;;;;;;5005228;28;20482;-73
2024/02/20 08:22:47;;;;;;;18.07;5.00;;;8.70;99.90;;;;;;5004624;28;20472;-72
2024/02/20 08:25:32;;;;;;;9.70;4.20;;;8.80;99.90;;;;;;5010385;28;20533;-73
2024/02/20 08:28:18;;;;;;;8.63;3.73;;;8.80;99.90;;;;;;5009009;28;20563;-73
2024/02/20 08:31:04;;;;;;;17.87;4.17;;;8.70;99.90;;;;;;5014601;28;20483;-73
2024/02/20 08:33:51;;;;;;;20.90;4.37;;;8.70;99.90;;;;;;5011328;28;20816;-73
2024/02/20 08:36:39;;;;;;;12.43;3.30;;;8.70;99.90;;;;;;5008625;28;20890;-72
2024/02/20 08:39:25;;;;;;;15.37;4.03;;;8.80;99.90;;;;;;5008122;28;20434;-73
2024/02/20 08:42:11;;;;;;;22.00;4.87;;;8.80;99.90;;;;;;5011047;28;20431;-72
2024/02/20 08:44:56;;;;;;;13.57;4.97;;;8.70;99.90;;;;;;5014334;28;20971;-73
2024/02/20 08:47:42;;;;;;;19.07;5.73;;;8.80;99.90;;;;;;5003113;28;20484;-74
2024/02/20 08:50:29;;;;;;;25.40;5.90;;;8.80;99.90;;;;;;5011799;28;20440;-75
2024/02/20 08:53:14;;;;;;;18.63;5.30;;;8.80;99.90;;;;;;5009611;28;20471;-74
2024/02/20 08:56:00;;;;;;;15.63;4.63;;;8.90;99.90;;;;;;5010790;28;20448;-73
2024/02/20 08:58:46;;;;;;;21.87;6.57;;;9.00;99.90;;;;;;5007432;28;20958;-75
2024/02/20 09:01:31;;;;;;;32.43;5.30;;;9.10;99.90;;;;;;5003095;28;20456;-74
2024/02/20 09:04:18;;;;;;;22.47;5.70;;;9.00;99.90;;;;;;5004891;28;21091;-73
2024/02/20 09:07:05;;;;;;;12.57;4.93;;;9.10;99.90;;;;;;5006990;28;20457;-74
2024/02/20 09:09:50;;;;;;;17.67;5.67;;;9.20;99.90;;;;;;5006357;28;20428;-73
2024/02/20 09:12:36;;;;;;;21.03;6.07;;;9.30;99.90;;;;;;5004667;28;20454;-73
2024/02/20 09:15:22;;;;;;;29.70;4.90;;;9.40;99.90;;;;;;5005096;28;20439;-73
2024/02/20 09:18:08;;;;;;;24.00;6.87;;;9.50;99.90;;;;;;5006745;28;22383;-73
2024/02/20 09:20:53;;;;;;;35.03;10.83;;;9.30;99.90;;;;;;5007303;28;20539;-73
2024/02/20 09:23:40;;;;;;;28.10;9.10;;;9.30;99.90;;;;;;5005661;28;20944;-75
2024/02/20 09:26:27;;;;;;;15.73;5.30;;;9.40;99.90;;;;;;5006728;28;20438;-74
2024/02/20 09:29:13;;;;;;;32.13;5.47;;;9.40;99.90;;;;;;5008612;28;20505;-75
2024/02/20 09:31:59;;;;;;;30.67;10.53;;;9.50;99.90;;;;;;5002488;28;20477;-73
2024/02/20 09:34:45;;;;;;;17.97;6.13;;;9.60;99.90;;;;;;5005407;28;20551;-74
2024/02/20 09:37:30;;;;;;;16.83;5.63;;;9.50;99.90;;;;;;5008617;28;20688;-73
2024/02/20 09:40:20;;;;;;;16.43;5.60;;;9.60;99.90;;;;;;5011123;28;21159;-73
2024/02/20 09:43:07;;;;;;;17.40;6.20;;;9.80;99.90;;;;;;5004707;28;20791;-75
2024/02/20 09:45:56;;;;;;;16.13;5.43;;;9.90;99.90;;;;;;5010318;28;20586;-73
2024/02/20 09:48:43;;;;;;;16.37;5.33;;;10.10;99.90;;;;;;5010069;28;20848;-74
2024/02/20 09:51:30;;;;;;;18.83;5.50;;;10.30;99.90;;;;;;5009322;28;20537;-75
2024/02/20 09:54:16;;;;;;;18.50;6.83;;;10.40;99.90;;;;;;5010930;28;20449;-73
2024/02/20 09:57:04;;;;;;;21.60;6.50;;;10.40;99.90;;;;;;5012401;28;20651;-73
2024/02/20 09:59:50;;;;;;;17.33;4.60;;;10.50;99.90;;;;;;5009162;28;20455;-74
2024/02/20 10:02:36;;;;;;;21.27;7.20;;;10.70;99.90;;;;;;5005170;28;20461;-73
2024/02/20 10:05:21;;;;;;;20.07;6.73;;;10.80;99.90;;;;;;5008654;28;21240;-76
2024/02/20 10:08:08;;;;;;;19.50;5.30;;;10.70;99.90;;;;;;5007935;28;20478;-74
2024/02/20 10:10:53;;;;;;;15.10;6.20;;;10.80;99.90;;;;;;5004322;28;20533;-74
2024/02/20 10:13:49;;;;;;;16.50;6.03;;;10.80;99.90;;;;;;5006726;28;20458;-73
2024/02/20 10:16:35;;;;;;;12.57;4.50;;;11.00;99.90;;;;;;5003293;28;20463;-73
2024/02/20 10:19:21;;;;;;;13.73;4.00;;;10.90;99.90;;;;;;5006448;28;20418;-73
2024/02/20 10:22:07;;;;;;;16.33;5.60;;;11.00;99.90;;;;;;5003997;28;20472;-73
2024/02/20 10:25:02;;;;;;;24.13;7.13;;;11.00;99.90;;;;;;5008218;28;20456;-73
2024/02/20 10:27:48;;;;;;;18.90;6.20;;;10.90;99.90;;;;;;5008733;28;20484;-73
2024/02/20 10:30:35;;;;;;;16.43;5.80;;;10.80;99.90;;;;;;5006661;28;20465;-73
2024/02/20 10:33:21;;;;;;;17.93;4.70;;;10.80;99.90;;;;;;5003962;28;20464;-73
2024/02/20 10:36:09;;;;;;;16.63;5.23;;;10.90;99.90;;;;;;5007691;28;21070;-72
2024/02/20 10:39:04;;;;;;;21.60;5.57;;;11.00;99.90;;;;;;5006820;28;20626;-73
2024/02/20 10:41:51;;;;;;;22.13;6.30;;;11.00;99.90;;;;;;5001878;28;20679;-74
2024/02/20 10:44:39;;;;;;;16.63;4.87;;;11.00;99.90;;;;;;4997463;28;20801;-73
2024/02/20 10:47:29;;;;;;;15.33;4.37;;;10.70;99.90;;;;;;5000992;28;20543;-74
2024/02/20 10:50:16;;;;;;;12.00;5.47;;;10.70;99.90;;;;;;5008693;28;20971;-74
2024/02/20 10:53:01;;;;;;;16.83;4.17;;;10.70;99.90;;;;;;5009413;28;20602;-73
2024/02/20 10:55:52;;;;;;;20.63;5.20;;;10.70;99.90;;;;;;5007317;28;21288;-73
2024/02/20 10:58:39;;;;;;;16.83;4.67;;;10.60;99.90;;;;;;5010708;28;20459;-74
2024/02/20 11:01:26;;;;;;;23.70;5.20;;;10.70;99.90;;;;;;5007123;28;20469;-73
2024/02/20 11:04:14;;;;;;;18.77;4.60;;;10.70;99.90;;;;;;5006785;28;20443;-74
2024/02/20 11:06:59;;;;;;;11.23;4.87;;;10.80;99.90;;;;;;5008171;28;20489;-73
2024/02/20 11:10:10;;;;;;;21.20;5.63;;;10.90;99.90;;;;;;5007229;28;20600;-74
2024/02/20 11:12:55;;;;;;;19.30;5.23;;;11.20;99.90;;;;;;5008838;28;20440;-74
2024/02/20 11:15:41;;;;;;;14.40;4.77;;;11.30;99.90;;;;;;5005358;28;20451;-74
2024/02/20 11:18:27;;;;;;;23.60;4.93;;;11.40;99.90;;;;;;5010259;28;20425;-74
2024/02/20 11:21:24;;;;;;;16.57;5.20;;;11.50;99.90;;;;;;5014515;28;20411;-73
2024/02/20 11:24:12;;;;;;;21.77;5.60;;;11.50;99.90;;;;;;5013858;28;20425;-73
2024/02/20 11:27:01;;;;;;;18.90;4.70;;;11.50;99.90;;;;;;5012606;28;20470;-75
2024/02/20 11:29:46;;;;;;;16.43;4.07;;;11.50;99.90;;;;;;5010562;28;20440;-73
2024/02/20 11:32:32;;;;;;;16.33;5.17;;;11.50;99.90;;;;;;5013358;28;20791;-73
2024/02/20 11:35:24;;;;;;;23.00;4.50;;;11.40;99.90;;;;;;5009746;28;20435;-74
2024/02/20 11:38:13;;;;;;;26.60;5.60;;;11.40;99.90;;;;;;5015202;28;20435;-74
2024/02/20 11:40:58;;;;;;;21.10;5.50;;;11.40;99.90;;;;;;5015832;28;20415;-74
2024/02/20 11:43:44;;;;;;;27.07;4.93;;;11.40;99.90;;;;;;5013032;28;20428;-74
2024/02/20 11:46:30;;;;;;;13.70;4.83;;;11.40;99.90;;;;;;5021662;28;20617;-75
2024/02/20 11:49:21;;;;;;;18.37;5.10;;;11.30;99.90;;;;;;5021279;28;20630;-75
2024/02/20 11:52:08;;;;;;;20.53;5.60;;;11.20;99.90;;;;;;5019920;28;20413;-73
2024/02/20 11:54:56;;;;;;;23.10;4.87;;;11.10;99.90;;;;;;5020547;28;20422;-73
2024/02/20 11:57:44;;;;;;;18.80;4.70;;;11.20;99.90;;;;;;5016581;28;20453;-73
2024/02/20 12:00:32;;;;;;;17.70;4.97;;;11.20;99.90;;;;;;5018447;28;20676;-75
2024/02/20 12:03:30;;;;;;;18.70;4.93;;;11.40;99.90;;;;;;5013355;28;20519;-74
2024/02/20 12:06:16;;;;;;;22.27;4.60;;;11.60;99.90;;;;;;5012275;28;20479;-74
2024/02/20 12:09:02;;;;;;;16.87;4.23;;;11.60;99.90;;;;;;5010051;28;20646;-74
2024/02/20 12:11:50;;;;;;;10.77;4.10;;;11.60;99.90;;;;;;5012812;28;20401;-73
2024/02/20 12:14:36;;;;;;;23.33;5.67;;;11.50;99.90;;;;;;5014821;28;20558;-74
2024/02/20 12:17:27;;;;;;;19.63;5.10;;;11.50;99.90;;;;;;5014868;28;20593;-74
2024/02/20 12:20:14;;;;;;;20.40;4.30;;;11.60;99.90;;;;;;5013237;28;20428;-74
2024/02/20 12:23:00;;;;;;;12.23;3.60;;;11.60;99.90;;;;;;5012395;28;20415;-74
2024/02/20 12:25:46;;;;;;;16.57;4.37;;;11.80;99.90;;;;;;5009861;28;20471;-73
2024/02/20 12:28:33;;;;;;;20.07;5.00;;;11.80;99.90;;;;;;5011156;28;20500;-76
2024/02/20 12:31:21;;;;;;;18.67;6.83;;;11.90;99.90;;;;;;5011037;28;20440;-74
2024/02/20 12:34:07;;;;;;;16.63;6.13;;;12.00;99.90;;;;;;5009542;28;20592;-75
2024/02/20 12:36:52;;;;;;;12.57;4.87;;;12.10;99.90;;;;;;5015767;28;20581;-74
2024/02/20 12:39:38;;;;;;;16.80;4.60;;;12.30;99.90;;;;;;5007119;28;20599;-75
2024/02/20 12:42:24;;;;;;;10.17;3.50;;;12.30;99.90;;;;;;5010226;28;20752;-74
2024/02/20 12:45:11;;;;;;;15.53;4.30;;;12.20;99.90;;;;;;5009657;28;20492;-75
2024/02/20 12:47:56;;;;;;;24.37;4.73;;;12.00;99.90;;;;;;5014776;28;20599;-74
2024/02/20 12:50:44;;;;;;;15.70;4.37;;;12.00;99.90;;;;;;5014320;28;20435;-74
2024/02/20 12:53:30;;;;;;;14.07;3.80;;;11.90;99.90;;;;;;5010201;28;20454;-74
2024/02/20 12:56:15;;;;;;;11.33;3.30;;;11.70;99.90;;;;;;5013509;28;20505;-73
2024/02/20 12:59:01;;;;;;;15.97;4.10;;;11.70;99.90;;;;;;5016712;28;20448;-72
2024/02/20 13:01:48;;;;;;;11.17;3.30;;;11.60;99.90;;;;;;5018925;28;20597;-72
2024/02/20 13:04:34;;;;;;;12.53;3.73;;;11.60;99.90;;;;;;5007668;28;20523;-75
2024/02/20 13:07:19;;;;;;;20.50;4.27;;;11.60;99.90;;;;;;5009825;28;20473;-74
2024/02/20 13:10:06;;;;;;;13.20;3.70;;;11.50;99.90;;;;;;5014236;28;20575;-74
2024/02/20 13:12:52;;;;;;;14.23;3.83;;;11.60;99.90;;;;;;5009299;28;20590;-74
2024/02/20 13:15:38;;;;;;;12.13;3.47;;;11.60;99.90;;;;;;5008652;28;20513;-76
2024/02/20 13:18:25;;;;;;;12.67;3.50;;;11.70;99.90;;;;;;5013119;28;20462;-74
2024/02/20 13:21:11;;;;;;;12.03;4.20;;;11.70;99.90;;;;;;5009750;28;20503;-74
2024/02/20 13:23:58;;;;;;;15.67;4.60;;;11.70;99.90;;;;;;5010545;28;20452;-74
2024/02/20 13:26:44;;;;;;;10.90;3.10;;;11.80;99.90;;;;;;5008970;28;21285;-74
2024/02/20 13:29:29;;;;;;;12.63;3.50;;;11.90;99.90;;;;;;5006631;28;20531;-74
2024/02/20 13:32:15;;;;;;;21.30;4.23;;;11.90;99.90;;;;;;5008831;28;20956;-74
2024/02/20 13:35:02;;;;;;;16.80;4.87;;;11.90;99.90;;;;;;5007511;28;20462;-74
2024/02/20 13:37:48;;;;;;;15.57;4.80;;;11.90;99.90;;;;;;5032721;23;20459;-75
2024/02/20 13:40:34;;;;;;;8.67;3.53;;;11.90;99.90;;;;;;5008088;28;20880;-74
2024/02/20 13:43:19;;;;;;;11.60;3.90;;;11.80;99.90;;;;;;5010393;28;20465;-75
2024/02/20 13:46:05;;;;;;;9.07;3.00;;;11.80;99.90;;;;;;5007261;28;20463;-74
2024/02/20 13:48:51;;;;;;;11.83;3.67;;;11.80;99.90;;;;;;5009357;28;20597;-75
2024/02/20 13:51:39;;;;;;;14.03;4.17;;;11.80;99.90;;;;;;5010734;28;20442;-74
2024/02/20 13:54:28;;;;;;;12.93;3.77;;;11.70;99.90;;;;;;5016925;28;20614;-75
2024/02/20 13:57:13;;;;;;;16.43;5.27;;;11.70;99.90;;;;;;5013971;28;21006;-75
2024/02/20 13:59:59;;;;;;;11.17;3.47;;;11.60;99.90;;;;;;5012557;28;20450;-74
2024/02/20 14:02:44;;;;;;;14.93;4.20;;;11.60;99.90;;;;;;5006720;28;20558;-74
2024/02/20 14:05:30;;;;;;;14.10;4.10;;;11.50;99.90;;;;;;5013170;28;20443;-75
2024/02/20 14:08:19;;;;;;;10.20;3.87;;;11.40;99.90;;;;;;5012242;28;20993;-74
2024/02/20 14:11:07;;;;;;;16.90;3.97;;;11.40;99.90;;;;;;5015155;28;20838;-74
2024/02/20 14:13:53;;;;;;;16.13;3.93;;;11.40;99.90;;;;;;5013444;28;20634;-74
2024/02/20 14:16:39;;;;;;;16.67;3.97;;;11.50;99.90;;;;;;5010717;28;20460;-75
2024/02/20 14:19:24;;;;;;;14.73;6.30;;;11.50;99.90;;;;;;5011968;28;20475;-75
2024/02/20 14:22:12;;;;;;;18.60;5.07;;;11.40;99.90;;;;;;5008870;28;20589;-75
2024/02/20 14:24:59;;;;;;;6.27;3.63;;;11.40;99.90;;;;;;5011983;28;20854;-75